Time;durP1;ratioP1;P1;durP2;ratioP2;P2;SDS_P1;SDS_P2;PMS_P1;PMS_P2;Temp;Humidity;BMP_temperature;BMP_pressure;BME280_temperature;BME280_humidity;BME280_pressure;Samples;Min_cycle;Max_cycle;Signal;HPM_P1;HPM_P2
2023/05/14 00:00:13;;;;;;;28.88;18.27;;;14.20;99.90;;;;;;4115371;28;20051;-55
2023/05/14 00:02:17;;;;;;;31.10;19.17;;;14.30;99.90;;;;;;4115484;28;20493;-54
2023/05/14 00:04:19;;;;;;;28.40;18.15;;;14.20;99.90;;;;;;4115313;28;20489;-55
2023/05/14 00:06:21;;;;;;;29.85;18.77;;;14.10;99.90;;;;;;4115364;28;20042;-53
2023/05/14 00:08:23;;;;;;;25.90;17.85;;;14.10;99.90;;;;;;4114356;28;20386;-54
2023/05/14 00:10:26;;;;;;;30.58;19.25;;;14.10;99.90;;;;;;4115513;28;20402;-54
2023/05/14 00:12:29;;;;;;;29.08;18.85;;;14.10;99.90;;;;;;4115205;28;20053;-55
2023/05/14 00:14:30;;;;;;;25.80;18.92;;;14.20;99.90;;;;;;4098021;29;20051;-55
2023/05/14 00:16:33;;;;;;;28.88;19.00;;;14.10;99.90;;;;;;4115231;28;20051;-55
2023/05/14 00:18:36;;;;;;;32.63;19.27;;;14.20;99.90;;;;;;4114106;28;20057;-54
2023/05/14 00:20:39;;;;;;;33.17;19.35;;;14.10;99.90;;;;;;4115182;28;20385;-56
2023/05/14 00:22:41;;;;;;;26.27;19.20;;;14.10;99.90;;;;;;4115062;28;20055;-55
2023/05/14 00:24:43;;;;;;;32.63;19.63;;;14.10;99.90;;;;;;4115345;28;20071;-57
2023/05/14 00:26:45;;;;;;;24.25;17.20;;;14.10;99.90;;;;;;4127202;28;20093;-55
2023/05/14 00:28:48;;;;;;;29.38;20.38;;;14.10;99.90;;;;;;4130134;28;20046;-55
2023/05/14 00:30:50;;;;;;;26.67;17.35;;;14.00;99.90;;;;;;4131128;28;20073;-55
2023/05/14 00:32:52;;;;;;;27.20;18.42;;;14.00;99.90;;;;;;4132900;28;20403;-55
2023/05/14 00:34:56;;;;;;;25.90;18.23;;;13.90;99.90;;;;;;4121441;28;20047;-56
2023/05/14 00:36:58;;;;;;;24.48;18.05;;;14.00;99.90;;;;;;4118528;28;20077;-52
2023/05/14 00:39:00;;;;;;;27.65;19.02;;;14.00;99.90;;;;;;4117260;28;20054;-52
2023/05/14 00:41:03;;;;;;;25.77;18.45;;;14.00;99.90;;;;;;4118336;28;20096;-59
2023/05/14 00:43:05;;;;;;;25.40;18.80;;;13.90;99.90;;;;;;4118440;28;20051;-52
2023/05/14 00:45:08;;;;;;;31.05;19.65;;;13.90;99.90;;;;;;4118261;28;20058;-60
2023/05/14 00:47:10;;;;;;;27.17;18.58;;;13.80;99.90;;;;;;4117956;28;20049;-57
2023/05/14 00:49:12;;;;;;;31.70;19.63;;;13.80;99.90;;;;;;4100293;28;20500;-52
2023/05/14 00:51:16;;;;;;;17.90;15.10;;;13.80;99.90;;;;;;4118551;28;20057;-53
2023/05/14 00:53:19;;;;;;;32.40;20.23;;;13.80;99.90;;;;;;4118453;28;20050;-62
2023/05/14 00:55:22;;;;;;;31.60;19.45;;;13.80;99.90;;;;;;4118425;28;20043;-57
2023/05/14 00:57:24;;;;;;;33.53;22.38;;;13.70;99.90;;;;;;4118069;28;20061;-53
2023/05/14 00:59:26;;;;;;;25.10;17.63;;;13.70;99.90;;;;;;4117013;28;20057;-54
2023/05/14 01:01:28;;;;;;;24.15;16.88;;;13.70;99.90;;;;;;4117682;28;20126;-52
2023/05/14 01:03:31;;;;;;;28.33;20.10;;;13.80;99.90;;;;;;4118210;28;20430;-56
2023/05/14 01:05:52;;;;;;;28.95;21.73;;;13.70;99.90;;;;;;4118736;28;20068;-55
2023/05/14 01:08:02;;;;;;;27.17;21.80;;;13.60;99.90;;;;;;4118606;28;20046;-52
2023/05/14 01:10:10;;;;;;;28.70;21.77;;;13.50;99.90;;;;;;4100103;28;20058;-52
2023/05/14 01:12:18;;;;;;;29.17;21.55;;;13.50;99.90;;;;;;4117740;28;20072;-53
2023/05/14 01:14:26;;;;;;;30.98;21.13;;;13.50;99.90;;;;;;4117717;28;20047;-52
2023/05/14 01:16:30;;;;;;;25.88;20.58;;;13.50;99.90;;;;;;4117812;28;20469;-52
2023/05/14 01:18:33;;;;;;;27.95;21.38;;;13.60;99.90;;;;;;4099814;28;20063;-55
2023/05/14 01:20:35;;;;;;;29.35;21.20;;;13.60;99.90;;;;;;4117114;28;20078;-53
2023/05/14 01:22:38;;;;;;;33.05;22.98;;;13.50;99.90;;;;;;4117691;28;20165;-53
2023/05/14 01:24:40;;;;;;;28.00;21.30;;;13.50;99.90;;;;;;4118092;28;20046;-53
2023/05/14 01:26:43;;;;;;;31.83;21.35;;;13.50;99.90;;;;;;4130312;28;20050;-51
2023/05/14 01:28:47;;;;;;;26.35;20.42;;;13.50;99.90;;;;;;4133653;28;20049;-55
2023/05/14 01:30:59;;;;;;;30.73;22.17;;;13.60;99.90;;;;;;4134126;28;20058;-52
2023/05/14 01:33:05;;;;;;;32.85;22.98;;;13.60;99.90;;;;;;4133915;28;20042;-52
2023/05/14 01:35:09;;;;;;;30.27;23.40;;;13.60;99.90;;;;;;4120357;28;20050;-51
2023/05/14 01:37:12;;;;;;;33.25;25.30;;;13.60;99.90;;;;;;4118995;28;20053;-54
2023/05/14 01:39:16;;;;;;;35.60;24.80;;;13.60;99.90;;;;;;4118529;28;20046;-58
2023/05/14 01:41:22;;;;;;;35.83;24.45;;;13.40;99.90;;;;;;4119360;28;20042;-54
2023/05/14 01:43:24;;;;;;;29.10;20.08;;;13.50;99.90;;;;;;4118898;28;20043;-61
2023/05/14 01:45:26;;;;;;;32.03;23.95;;;13.50;99.90;;;;;;4118032;28;20074;-58
2023/05/14 01:47:29;;;;;;;33.90;26.10;;;13.50;99.90;;;;;;4118997;28;20057;-52
2023/05/14 01:49:31;;;;;;;32.95;26.13;;;13.40;99.90;;;;;;4118002;28;20047;-53
2023/05/14 01:51:33;;;;;;;37.40;27.10;;;13.20;99.90;;;;;;4119375;28;20125;-53
2023/05/14 01:53:35;;;;;;;34.63;26.70;;;13.20;99.90;;;;;;4119187;28;20047;-52
2023/05/14 01:55:38;;;;;;;35.78;25.52;;;13.10;99.90;;;;;;4117256;28;20058;-53
2023/05/14 01:57:40;;;;;;;36.10;27.95;;;13.00;99.90;;;;;;4117420;28;20054;-52
2023/05/14 01:59:42;;;;;;;37.88;28.50;;;13.00;99.90;;;;;;4115710;28;20047;-51
2023/05/14 02:01:44;;;;;;;32.75;27.45;;;13.00;99.90;;;;;;4117380;28;20051;-51
2023/05/14 02:03:46;;;;;;;38.40;28.92;;;12.90;99.90;;;;;;4117182;28;20512;-51
2023/05/14 02:05:49;;;;;;;38.50;29.20;;;12.90;99.90;;;;;;4117247;28;20053;-52
2023/05/14 02:07:50;;;;;;;35.55;27.83;;;12.90;99.90;;;;;;4117048;28;20504;-51
2023/05/14 02:09:52;;;;;;;37.28;28.20;;;12.90;99.90;;;;;;4115847;28;20046;-52
2023/05/14 02:11:56;;;;;;;37.50;27.55;;;12.80;99.90;;;;;;4116965;28;20049;-53
2023/05/14 02:13:58;;;;;;;38.25;30.90;;;12.80;99.90;;;;;;4116437;28;20057;-51
2023/05/14 02:16:00;;;;;;;37.42;28.85;;;12.60;99.90;;;;;;4116821;28;20051;-53
2023/05/14 02:18:02;;;;;;;39.15;29.67;;;12.60;99.90;;;;;;4116786;28;20046;-53
2023/05/14 02:20:05;;;;;;;38.53;30.52;;;12.60;99.90;;;;;;4115724;28;20050;-52
2023/05/14 02:22:08;;;;;;;43.63;30.27;;;12.60;99.90;;;;;;4116734;28;20113;-57
2023/05/14 02:24:10;;;;;;;36.22;26.52;;;12.60;99.90;;;;;;4099429;29;20130;-52
2023/05/14 02:26:12;;;;;;;35.13;28.50;;;12.50;99.90;;;;;;4124490;28;20127;-52
2023/05/14 02:28:16;;;;;;;36.67;27.92;;;12.50;99.90;;;;;;4132671;28;20193;-57
2023/05/14 02:30:18;;;;;;;40.67;30.52;;;12.60;99.90;;;;;;4131683;28;20050;-57
2023/05/14 02:32:20;;;;;;;38.53;27.33;;;12.60;99.90;;;;;;4133014;28;20066;-52
2023/05/14 02:34:22;;;;;;;36.03;28.60;;;12.70;99.90;;;;;;4106692;28;20051;-52
2023/05/14 02:36:24;;;;;;;37.40;26.58;;;12.70;99.90;;;;;;4116485;28;20113;-52
2023/05/14 02:38:26;;;;;;;39.38;28.77;;;12.80;99.90;;;;;;4115653;28;20054;-53
2023/05/14 02:40:28;;;;;;;40.75;29.13;;;12.80;99.90;;;;;;4116149;28;20055;-53
2023/05/14 02:42:31;;;;;;;48.97;29.23;;;12.70;99.90;;;;;;4116272;28;20047;-59
2023/05/14 02:44:34;;;;;;;39.30;29.00;;;12.60;99.90;;;;;;4116247;28;20050;-57
2023/05/14 02:46:36;;;;;;;36.08;27.88;;;12.60;99.90;;;;;;4116920;28;20043;-55
2023/05/14 02:48:38;;;;;;;36.65;26.33;;;12.70;99.90;;;;;;4116628;28;20114;-55
2023/05/14 02:50:40;;;;;;;41.97;29.27;;;12.70;99.90;;;;;;4117635;28;20059;-58
2023/05/14 02:52:43;;;;;;;30.98;26.02;;;12.70;99.90;;;;;;4116344;28;20051;-55
2023/05/14 02:54:45;;;;;;;35.85;26.30;;;12.80;99.90;;;;;;4115974;28;20055;-54
2023/05/14 02:56:47;;;;;;;34.78;27.10;;;12.80;99.90;;;;;;4116411;28;20047;-55
2023/05/14 02:58:49;;;;;;;36.17;27.00;;;12.90;99.90;;;;;;4115188;28;20050;-54
2023/05/14 03:00:52;;;;;;;44.75;29.17;;;12.90;99.90;;;;;;4116186;28;20101;-54
2023/05/14 03:02:54;;;;;;;39.15;28.63;;;12.90;99.90;;;;;;4116233;28;20549;-56
2023/05/14 03:04:57;;;;;;;43.08;28.30;;;12.80;99.90;;;;;;4116211;28;20098;-55
2023/05/14 03:06:59;;;;;;;36.35;26.42;;;12.90;99.90;;;;;;4116132;28;20057;-55
2023/05/14 03:09:01;;;;;;;35.35;26.92;;;12.90;99.90;;;;;;4115270;28;20049;-55
2023/05/14 03:11:03;;;;;;;41.50;28.75;;;12.80;99.90;;;;;;4116238;28;20046;-54
2023/05/14 03:13:05;;;;;;;33.25;24.55;;;12.80;99.90;;;;;;4115898;28;20382;-55
2023/05/14 03:15:08;;;;;;;40.33;27.00;;;12.80;99.90;;;;;;4116037;28;20057;-56
2023/05/14 03:17:12;;;;;;;39.67;28.90;;;12.90;99.90;;;;;;4116170;28;20047;-56
2023/05/14 03:19:14;;;;;;;42.47;28.00;;;12.90;99.90;;;;;;4114921;28;20066;-55
2023/05/14 03:21:16;;;;;;;37.58;27.80;;;12.90;99.90;;;;;;4115819;28;20050;-56
2023/05/14 03:23:19;;;;;;;39.88;25.88;;;12.90;99.90;;;;;;4115873;28;20059;-55
2023/05/14 03:25:21;;;;;;;34.58;24.48;;;12.90;99.90;;;;;;4116807;28;20051;-55
2023/05/14 03:27:23;;;;;;;40.08;29.25;;;13.00;99.90;;;;;;4131922;28;20046;-57
2023/05/14 03:29:25;;;;;;;43.78;28.13;;;13.00;99.90;;;;;;4130961;28;20460;-56
2023/05/14 03:31:27;;;;;;;37.88;27.27;;;12.90;99.90;;;;;;4132246;28;20054;-55
2023/05/14 03:33:31;;;;;;;40.88;26.27;;;12.90;99.90;;;;;;4113140;28;20401;-55
2023/05/14 03:35:33;;;;;;;48.40;29.17;;;13.00;99.90;;;;;;4115794;28;20050;-55
2023/05/14 03:37:35;;;;;;;41.33;28.75;;;13.00;99.90;;;;;;4115645;28;20042;-55
2023/05/14 03:39:37;;;;;;;38.33;27.40;;;12.90;99.90;;;;;;4114608;28;20241;-55
2023/05/14 03:41:39;;;;;;;43.40;29.38;;;13.00;99.90;;;;;;4115493;28;20398;-55
2023/05/14 03:43:41;;;;;;;37.78;28.63;;;13.00;99.90;;;;;;4098666;28;20043;-54
2023/05/14 03:45:43;;;;;;;34.55;25.38;;;13.00;99.90;;;;;;4115582;28;20129;-54
2023/05/14 03:47:45;;;;;;;41.17;28.75;;;12.90;99.90;;;;;;4115660;28;20051;-54
2023/05/14 03:49:49;;;;;;;40.13;28.40;;;12.90;99.90;;;;;;4114510;28;20039;-55
2023/05/14 03:51:51;;;;;;;46.22;27.85;;;12.90;99.90;;;;;;4115896;28;20131;-55
2023/05/14 03:53:53;;;;;;;34.58;26.05;;;12.90;99.90;;;;;;4115680;28;20477;-55
2023/05/14 03:55:55;;;;;;;40.50;27.60;;;12.90;99.90;;;;;;4115350;28;20043;-55
2023/05/14 03:58:01;;;;;;;40.92;28.38;;;12.90;99.90;;;;;;4115770;28;20055;-58
2023/05/14 04:00:04;;;;;;;37.88;27.45;;;12.90;99.90;;;;;;4114536;28;20227;-55
2023/05/14 04:02:06;;;;;;;48.05;29.15;;;12.90;99.90;;;;;;4115455;28;20058;-54
2023/05/14 04:04:09;;;;;;;46.97;28.58;;;12.90;99.90;;;;;;4115101;28;20420;-55
2023/05/14 04:06:13;;;;;;;35.58;27.65;;;12.90;99.90;;;;;;4115246;28;20559;-55
2023/05/14 04:08:15;;;;;;;38.03;28.85;;;12.90;99.90;;;;;;4114822;28;20055;-53
2023/05/14 04:10:17;;;;;;;39.67;28.45;;;12.90;99.90;;;;;;4113940;28;20046;-55
2023/05/14 04:12:19;;;;;;;37.15;26.98;;;12.80;99.90;;;;;;4115494;28;20043;-55
2023/05/14 04:14:21;;;;;;;35.20;26.98;;;12.70;99.90;;;;;;4115470;28;20413;-55
2023/05/14 04:16:23;;;;;;;36.58;27.40;;;12.60;99.90;;;;;;4115649;28;20070;-56
2023/05/14 04:18:25;;;;;;;41.63;29.83;;;12.60;99.90;;;;;;4115462;28;20065;-55
2023/05/14 04:20:27;;;;;;;40.88;31.05;;;12.70;99.90;;;;;;4114284;28;20061;-54
2023/05/14 04:22:31;;;;;;;41.75;32.53;;;12.60;99.90;;;;;;4115385;28;20515;-55
2023/05/14 04:24:33;;;;;;;40.40;31.27;;;12.50;99.90;;;;;;4115091;28;20051;-56
2023/05/14 04:26:35;;;;;;;39.85;29.70;;;12.40;99.90;;;;;;4109349;28;20113;-55
2023/05/14 04:28:37;;;;;;;35.35;24.73;;;12.50;99.90;;;;;;4131908;28;20134;-59
2023/05/14 04:30:39;;;;;;;39.72;29.15;;;12.60;99.90;;;;;;4131961;28;20054;-57
2023/05/14 04:32:41;;;;;;;44.13;32.63;;;12.60;99.90;;;;;;4131950;28;20492;-56
2023/05/14 04:34:45;;;;;;;42.92;31.70;;;12.70;99.90;;;;;;4120246;28;20043;-59
2023/05/14 04:36:51;;;;;;;42.70;30.08;;;12.60;99.90;;;;;;4115516;28;20046;-55
2023/05/14 04:38:54;;;;;;;48.20;32.65;;;12.60;99.90;;;;;;4097212;28;20043;-55
2023/05/14 04:40:57;;;;;;;38.30;28.00;;;12.70;99.90;;;;;;4115259;28;20057;-56
2023/05/14 04:42:59;;;;;;;44.90;30.73;;;12.80;99.90;;;;;;4115865;28;20390;-55
2023/05/14 04:45:05;;;;;;;41.35;30.20;;;12.80;99.90;;;;;;4098492;28;20086;-55
2023/05/14 04:47:08;;;;;;;50.53;33.65;;;12.70;99.90;;;;;;4115199;28;20047;-53
2023/05/14 04:49:10;;;;;;;36.60;27.35;;;12.70;99.90;;;;;;4097121;29;20051;-54
2023/05/14 04:51:12;;;;;;;43.00;31.52;;;12.60;99.90;;;;;;4115067;28;20074;-54
2023/05/14 04:53:14;;;;;;;41.72;31.20;;;12.60;99.90;;;;;;4115053;28;20109;-54
2023/05/14 04:55:18;;;;;;;43.67;31.85;;;12.60;99.90;;;;;;4115045;28;20094;-55
2023/05/14 04:57:20;;;;;;;41.28;32.42;;;12.50;99.90;;;;;;4115326;28;20122;-54
2023/05/14 04:59:22;;;;;;;47.70;31.85;;;12.50;99.90;;;;;;4113940;28;20098;-55
2023/05/14 05:01:24;;;;;;;43.80;30.40;;;12.60;99.90;;;;;;4114935;28;20055;-53
2023/05/14 05:03:26;;;;;;;47.92;30.20;;;12.50;99.90;;;;;;4115094;28;20105;-55
2023/05/14 05:05:29;;;;;;;42.28;31.25;;;12.50;99.90;;;;;;4114976;28;20456;-54
2023/05/14 05:07:31;;;;;;;44.03;32.45;;;12.50;99.90;;;;;;4114698;28;20047;-54
2023/05/14 05:09:33;;;;;;;45.45;32.58;;;12.60;99.90;;;;;;4114133;28;20643;-59
2023/05/14 05:11:37;;;;;;;40.13;31.23;;;12.60;99.90;;;;;;4114857;28;20051;-55
2023/05/14 05:13:39;;;;;;;39.92;29.20;;;12.50;99.90;;;;;;4115104;28;20046;-55
2023/05/14 05:15:41;;;;;;;45.38;33.88;;;12.50;99.90;;;;;;4115007;28;20102;-55
2023/05/14 05:17:44;;;;;;;41.90;32.22;;;12.40;99.90;;;;;;4114843;28;20043;-55
2023/05/14 05:19:46;;;;;;;43.80;32.70;;;12.40;99.90;;;;;;4116831;28;20046;-54
2023/05/14 05:21:49;;;;;;;44.60;32.30;;;12.40;99.90;;;;;;4117844;28;20058;-54
2023/05/14 05:23:51;;;;;;;46.83;33.28;;;12.40;99.90;;;;;;4117502;28;20046;-55
2023/05/14 05:25:53;;;;;;;42.55;32.15;;;12.30;99.90;;;;;;4122807;28;20046;-55
2023/05/14 05:27:56;;;;;;;44.33;32.10;;;12.40;99.90;;;;;;4133859;28;20042;-55
2023/05/14 05:30:00;;;;;;;49.30;33.53;;;12.40;99.90;;;;;;4132593;28;20054;-55
2023/05/14 05:32:02;;;;;;;42.35;30.42;;;12.40;99.90;;;;;;4133936;28;20435;-54
2023/05/14 05:34:04;;;;;;;39.75;28.80;;;12.40;99.90;;;;;;4127713;28;20453;-57
2023/05/14 05:36:07;;;;;;;43.85;29.58;;;12.30;99.90;;;;;;4117640;28;20047;-55
2023/05/14 05:38:09;;;;;;;42.28;29.10;;;12.30;99.90;;;;;;4099896;29;20103;-55
2023/05/14 05:40:13;;;;;;;41.75;30.15;;;12.40;99.90;;;;;;4116563;28;20043;-55
2023/05/14 05:42:15;;;;;;;40.95;30.15;;;12.40;99.90;;;;;;4117323;28;20122;-54
2023/05/14 05:44:18;;;;;;;47.65;31.65;;;12.40;99.90;;;;;;4117584;28;20074;-55
2023/05/14 05:46:20;;;;;;;40.25;28.67;;;12.40;99.90;;;;;;4117531;28;20129;-56
2023/05/14 05:48:23;;;;;;;43.97;33.17;;;12.40;99.90;;;;;;4117450;28;20055;-55
2023/05/14 05:50:25;;;;;;;51.50;34.70;;;12.50;99.90;;;;;;4116490;28;20126;-54
2023/05/14 05:52:27;;;;;;;43.33;32.50;;;12.50;99.90;;;;;;4117228;28;20432;-54
2023/05/14 05:54:31;;;;;;;40.35;27.88;;;12.50;99.90;;;;;;4117154;28;20055;-55
2023/05/14 05:56:33;;;;;;;41.80;30.77;;;12.60;99.90;;;;;;4117261;28;20465;-55
2023/05/14 05:58:35;;;;;;;47.42;31.52;;;12.50;99.90;;;;;;4117064;28;20051;-55
2023/05/14 06:00:38;;;;;;;42.95;28.15;;;12.60;99.90;;;;;;4116244;28;20058;-55
2023/05/14 06:02:40;;;;;;;45.10;32.72;;;12.60;99.90;;;;;;4117079;28;20424;-54
2023/05/14 06:04:43;;;;;;;40.25;29.45;;;12.60;99.90;;;;;;4117154;28;20413;-55
2023/05/14 06:06:45;;;;;;;46.75;31.15;;;12.70;99.90;;;;;;4116736;28;20047;-55
2023/05/14 06:08:47;;;;;;;37.92;27.60;;;12.70;99.90;;;;;;4116919;28;20105;-52
2023/05/14 06:10:49;;;;;;;44.83;31.23;;;12.60;99.90;;;;;;4116531;28;20054;-57
2023/05/14 06:12:51;;;;;;;42.65;30.58;;;12.60;99.90;;;;;;4117975;28;20134;-56
2023/05/14 06:14:56;;;;;;;39.60;29.27;;;12.70;99.90;;;;;;4116986;28;20066;-56
2023/05/14 06:16:59;;;;;;;47.67;32.85;;;12.70;99.90;;;;;;4116967;28;20047;-56
2023/05/14 06:19:02;;;;;;;40.50;30.80;;;12.80;99.90;;;;;;4116856;28;20051;-55
2023/05/14 06:21:04;;;;;;;38.50;29.83;;;12.80;99.90;;;;;;4115540;28;20054;-55
2023/05/14 06:23:06;;;;;;;38.90;29.08;;;12.80;99.90;;;;;;4099674;29;20051;-54
2023/05/14 06:25:10;;;;;;;39.83;30.70;;;12.70;99.90;;;;;;4116926;28;20544;-54
2023/05/14 06:27:12;;;;;;;42.97;30.83;;;12.70;99.90;;;;;;4115183;28;20469;-56
2023/05/14 06:29:14;;;;;;;34.30;25.15;;;12.80;99.90;;;;;;4132125;28;20054;-55
2023/05/14 06:31:16;;;;;;;45.20;30.40;;;12.80;99.90;;;;;;4132084;28;20120;-53
2023/05/14 06:33:28;;;;;;;43.35;27.85;;;12.80;99.90;;;;;;4132572;28;20047;-55
2023/05/14 06:35:31;;;;;;;36.90;29.20;;;12.80;99.90;;;;;;4116381;28;20127;-55
2023/05/14 06:37:33;;;;;;;40.80;28.55;;;12.90;99.90;;;;;;4099586;29;20051;-55
2023/05/14 06:39:36;;;;;;;39.78;28.77;;;12.90;99.90;;;;;;4115858;28;20061;-55
2023/05/14 06:41:38;;;;;;;37.42;27.80;;;12.90;99.90;;;;;;4116550;28;20046;-55
2023/05/14 06:43:40;;;;;;;41.08;29.77;;;12.90;99.90;;;;;;4117159;28;20054;-56
2023/05/14 06:45:42;;;;;;;40.53;29.27;;;12.90;99.90;;;;;;4117026;28;20047;-54
2023/05/14 06:47:44;;;;;;;34.67;26.67;;;12.90;99.90;;;;;;4116988;28;20405;-56
2023/05/14 06:49:48;;;;;;;33.72;26.08;;;12.90;99.90;;;;;;4098206;29;20517;-54
2023/05/14 06:51:51;;;;;;;39.33;27.60;;;12.90;99.90;;;;;;4116060;28;20409;-55
2023/05/14 06:53:54;;;;;;;35.85;27.58;;;12.90;99.90;;;;;;4116500;28;20051;-55
2023/05/14 06:55:56;;;;;;;39.03;27.42;;;12.90;99.90;;;;;;4099055;28;20094;-54
2023/05/14 06:57:58;;;;;;;33.08;23.83;;;13.00;99.90;;;;;;4116122;28;20055;-56
2023/05/14 07:00:00;;;;;;;40.95;29.90;;;12.90;99.90;;;;;;4115345;28;20113;-59
2023/05/14 07:02:04;;;;;;;40.30;29.13;;;13.00;99.90;;;;;;4116258;28;20131;-55
2023/05/14 07:04:07;;;;;;;41.75;28.20;;;12.90;99.90;;;;;;4116364;28;20051;-53
2023/05/14 07:06:10;;;;;;;39.13;28.02;;;12.80;99.90;;;;;;4116405;28;20050;-52
2023/05/14 07:08:14;;;;;;;41.08;31.77;;;12.90;99.90;;;;;;4116783;28;20054;-56
2023/05/14 07:10:16;;;;;;;42.70;30.23;;;12.90;99.90;;;;;;4115281;28;20143;-56
2023/05/14 07:12:19;;;;;;;38.85;29.95;;;13.00;99.90;;;;;;4116719;28;20062;-56
2023/05/14 07:14:21;;;;;;;47.50;32.28;;;12.90;99.90;;;;;;4116405;28;20054;-54
2023/05/14 07:16:23;;;;;;;40.22;30.48;;;13.00;99.90;;;;;;4116174;28;20082;-55
2023/05/14 07:18:25;;;;;;;42.50;31.08;;;13.10;99.90;;;;;;4115804;28;20047;-56
2023/05/14 07:20:27;;;;;;;46.65;34.83;;;13.10;99.90;;;;;;4114782;28;20100;-53
2023/05/14 07:22:30;;;;;;;56.00;35.22;;;13.10;99.90;;;;;;4115773;28;20452;-54
2023/05/14 07:24:32;;;;;;;41.22;31.58;;;13.20;99.90;;;;;;4115920;28;20053;-54
2023/05/14 07:26:34;;;;;;;48.47;32.08;;;13.10;99.90;;;;;;4126350;28;20093;-54
2023/05/14 07:28:36;;;;;;;45.50;32.72;;;13.10;99.90;;;;;;4132158;28;20062;-54
2023/05/14 07:30:38;;;;;;;45.55;33.63;;;13.20;99.90;;;;;;4130974;28;20046;-54
2023/05/14 07:32:40;;;;;;;43.63;31.08;;;13.30;99.90;;;;;;4131417;28;20058;-54
2023/05/14 07:34:43;;;;;;;39.28;28.42;;;13.20;99.90;;;;;;4120458;28;20074;-55
2023/05/14 07:36:45;;;;;;;38.47;29.15;;;13.20;99.90;;;;;;4115788;28;20405;-55
2023/05/14 07:38:49;;;;;;;42.20;32.83;;;13.30;99.90;;;;;;4115637;28;20057;-54
2023/05/14 07:40:51;;;;;;;48.20;33.47;;;13.20;99.90;;;;;;4114536;28;20077;-53
2023/05/14 07:42:53;;;;;;;43.28;33.08;;;13.30;99.90;;;;;;4115458;28;20097;-54
2023/05/14 07:44:55;;;;;;;49.30;36.90;;;13.30;99.90;;;;;;4115814;28;20057;-54
2023/05/14 07:46:57;;;;;;;54.58;36.83;;;13.30;99.90;;;;;;4115251;28;20390;-56
2023/05/14 07:48:59;;;;;;;47.78;31.85;;;13.30;99.90;;;;;;4115921;28;20072;-55
2023/05/14 07:51:01;;;;;;;48.30;34.78;;;13.30;99.90;;;;;;4114423;28;20054;-54
2023/05/14 07:53:03;;;;;;;50.00;34.17;;;13.40;99.90;;;;;;4116280;28;20220;-55
2023/05/14 07:55:08;;;;;;;53.97;37.05;;;13.40;99.90;;;;;;4116373;28;20058;-55
2023/05/14 07:57:10;;;;;;;50.58;33.20;;;13.50;99.90;;;;;;4115357;28;20047;-54
2023/05/14 07:59:12;;;;;;;48.25;35.10;;;13.40;99.90;;;;;;4115648;28;20121;-53
2023/05/14 08:01:15;;;;;;;44.70;31.02;;;13.50;99.90;;;;;;4114167;28;20078;-55
2023/05/14 08:03:17;;;;;;;47.83;32.45;;;13.50;99.90;;;;;;4098205;29;20122;-54
2023/05/14 08:05:19;;;;;;;44.05;31.65;;;13.60;99.90;;;;;;4115225;28;20404;-56
2023/05/14 08:07:21;;;;;;;42.92;30.25;;;13.50;99.90;;;;;;4098302;28;20094;-55
2023/05/14 08:09:23;;;;;;;41.47;31.65;;;13.40;99.90;;;;;;4115239;28;20050;-54
2023/05/14 08:11:27;;;;;;;43.55;31.30;;;13.50;99.90;;;;;;4114424;28;20437;-55
2023/05/14 08:13:28;;;;;;;45.67;32.05;;;13.60;99.90;;;;;;4115329;28;20113;-54
2023/05/14 08:15:30;;;;;;;43.78;29.65;;;13.60;99.90;;;;;;4115366;28;20050;-54
2023/05/14 08:17:32;;;;;;;39.13;26.67;;;13.50;99.90;;;;;;4114937;28;20082;-53
2023/05/14 08:19:34;;;;;;;49.30;34.08;;;13.50;99.90;;;;;;4114595;28;20485;-55
2023/05/14 08:21:36;;;;;;;50.20;34.38;;;13.60;99.90;;;;;;4115135;28;20051;-54
2023/05/14 08:23:38;;;;;;;53.42;35.95;;;13.50;99.90;;;;;;4114930;28;20058;-55
2023/05/14 08:25:40;;;;;;;50.72;36.05;;;13.50;99.90;;;;;;4118734;28;20045;-54
2023/05/14 08:27:44;;;;;;;47.92;33.47;;;13.50;99.90;;;;;;4131271;28;20073;-54
2023/05/14 08:29:46;;;;;;;46.05;33.35;;;13.50;99.90;;;;;;4130287;28;20133;-54
2023/05/14 08:31:50;;;;;;;45.83;30.70;;;13.50;99.90;;;;;;4113326;28;20053;-54
2023/05/14 08:33:51;;;;;;;47.15;35.20;;;13.40;99.90;;;;;;4126652;28;20050;-54
2023/05/14 08:35:55;;;;;;;45.15;31.88;;;13.40;99.90;;;;;;4115080;28;20047;-54
2023/05/14 08:37:56;;;;;;;50.72;33.70;;;13.50;99.90;;;;;;4115120;28;20047;-54
2023/05/14 08:39:59;;;;;;;46.10;30.08;;;13.50;99.90;;;;;;4114195;28;20378;-54
2023/05/14 08:42:04;;;;;;;43.38;29.45;;;13.50;99.90;;;;;;4115095;28;20132;-55
2023/05/14 08:44:12;;;;;;;46.15;31.52;;;13.40;99.90;;;;;;4115256;28;20058;-54
2023/05/14 08:46:16;;;;;;;45.03;30.75;;;13.60;99.90;;;;;;4114891;28;20050;-54
2023/05/14 08:48:21;;;;;;;40.78;28.83;;;13.50;99.90;;;;;;4098043;29;20074;-55
2023/05/14 08:50:24;;;;;;;;;;;13.60;99.90;;;;;;4114610;28;20122;-55
2023/05/14 08:52:26;;;;;;;36.97;28.10;;;13.60;99.90;;;;;;4114998;28;19945;-55
2023/05/14 08:54:31;;;;;;;42.42;29.52;;;13.60;99.90;;;;;;4117870;28;20046;-54
2023/05/14 08:56:33;;;;;;;37.47;25.90;;;13.70;99.90;;;;;;4118145;28;20050;-54
2023/05/14 08:58:35;;;;;;;34.65;25.73;;;13.70;99.90;;;;;;4118241;28;20050;-55
2023/05/14 09:00:39;;;;;;;34.67;25.10;;;13.70;99.90;;;;;;4116747;28;20054;-56
2023/05/14 09:02:46;;;;;;;34.42;25.58;;;13.70;99.90;;;;;;4117998;28;20039;-55
2023/05/14 09:05:00;;;;;;;34.45;24.92;;;13.80;99.90;;;;;;4117878;28;20047;-55
2023/05/14 09:07:02;;;;;;;37.05;26.38;;;13.70;99.90;;;;;;4118262;28;20547;-54
2023/05/14 09:09:05;;;;;;;37.78;27.75;;;13.70;99.90;;;;;;4118050;28;20050;-54
2023/05/14 09:11:08;;;;;;;37.60;29.38;;;13.80;99.90;;;;;;4116868;28;20047;-55
2023/05/14 09:13:10;;;;;;;34.45;26.73;;;13.90;99.90;;;;;;4117911;28;20082;-54
2023/05/14 09:15:12;;;;;;;39.63;26.27;;;13.90;99.90;;;;;;4117335;28;20058;-56
2023/05/14 09:17:16;;;;;;;38.78;27.63;;;13.80;99.90;;;;;;4117828;28;20057;-55
2023/05/14 09:19:19;;;;;;;40.55;27.95;;;13.90;99.90;;;;;;4100788;29;20051;-55
2023/05/14 09:21:22;;;;;;;41.45;28.45;;;13.90;99.90;;;;;;4116899;28;20067;-54
2023/05/14 09:23:25;;;;;;;39.92;29.77;;;13.90;99.90;;;;;;4117535;28;20076;-54
2023/05/14 09:25:30;;;;;;;39.90;27.55;;;13.90;99.90;;;;;;4119446;28;20412;-54
2023/05/14 09:27:33;;;;;;;39.60;27.33;;;13.90;99.90;;;;;;4133971;28;20058;-54
2023/05/14 09:29:36;;;;;;;37.35;26.67;;;13.90;99.90;;;;;;4133334;28;20148;-54
2023/05/14 09:31:38;;;;;;;34.00;25.42;;;13.90;99.90;;;;;;4132708;28;20070;-56
2023/05/14 09:33:42;;;;;;;37.53;27.05;;;14.00;99.90;;;;;;4130641;28;20042;-53
2023/05/14 09:35:44;;;;;;;39.10;29.48;;;14.10;99.90;;;;;;4100666;29;20369;-55
2023/05/14 09:37:47;;;;;;;42.30;28.75;;;14.10;99.90;;;;;;4117623;28;20191;-57
2023/05/14 09:39:49;;;;;;;40.78;29.10;;;14.20;99.90;;;;;;4117126;28;20086;-54
2023/05/14 09:41:51;;;;;;;38.55;26.80;;;14.20;99.90;;;;;;4117487;28;20405;-55
2023/05/14 09:43:55;;;;;;;43.63;29.42;;;14.30;99.90;;;;;;4116889;28;20051;-54
2023/05/14 09:45:57;;;;;;;42.05;29.45;;;14.30;99.90;;;;;;4117439;28;20457;-55
2023/05/14 09:48:00;;;;;;;39.63;27.58;;;14.20;99.90;;;;;;4117187;28;20042;-54
2023/05/14 09:50:05;;;;;;;38.55;28.10;;;14.20;99.90;;;;;;4116366;28;20072;-54
2023/05/14 09:52:07;;;;;;;34.80;26.65;;;14.20;99.90;;;;;;4117053;28;20441;-54
2023/05/14 09:54:09;;;;;;;36.53;26.17;;;14.20;99.90;;;;;;4117111;28;20043;-54
2023/05/14 09:56:11;;;;;;;30.15;24.08;;;14.40;99.90;;;;;;4100006;29;20340;-55
2023/05/14 09:58:13;;;;;;;32.67;24.60;;;14.50;99.90;;;;;;4116904;28;20057;-56
2023/05/14 10:00:16;;;;;;;34.45;25.58;;;14.50;99.90;;;;;;4116035;28;20050;-54
2023/05/14 10:02:22;;;;;;;29.02;23.02;;;14.60;99.90;;;;;;4116984;28;20051;-56
2023/05/14 10:04:24;;;;;;;34.53;25.08;;;14.70;99.90;;;;;;4116427;28;20047;-53
2023/05/14 10:06:35;;;;;;;36.95;27.67;;;14.70;99.90;;;;;;4116561;28;20511;-55
2023/05/14 10:08:42;;;;;;;39.35;27.73;;;14.80;99.90;;;;;;4117031;28;20125;-55
2023/05/14 10:10:44;;;;;;;37.00;25.63;;;14.80;99.90;;;;;;4116778;28;20413;-54
2023/05/14 10:12:51;;;;;;;36.28;27.48;;;14.80;99.90;;;;;;4117077;28;20168;-55
2023/05/14 10:14:56;;;;;;;32.22;24.95;;;14.90;99.90;;;;;;4116804;28;20130;-53
2023/05/14 10:17:00;;;;;;;33.42;24.40;;;14.90;99.90;;;;;;4116937;28;20101;-54
2023/05/14 10:19:07;;;;;;;33.67;26.10;;;14.90;99.90;;;;;;4117093;28;20216;-52
2023/05/14 10:21:10;;;;;;;35.38;25.92;;;14.90;99.90;;;;;;4115716;28;20422;-52
2023/05/14 10:23:13;;;;;;;32.25;24.88;;;14.90;99.90;;;;;;4116704;28;20059;-53